Map

Track Data

SID SEASON NUMBER BASIN SUBBASIN NAME ISO_TIME NATURE LAT LON WMO_WIND WMO_PRES WMO_AGENCY TRACK_TYPE DIST2LAND LANDFALL IFLAG USA_AGENCY USA_ATCF_ID USA_LAT USA_LON USA_RECORD USA_STATUS USA_WIND USA_PRES USA_SSHS USA_R34_NE USA_R34_SE USA_R34_SW USA_R34_NW USA_R50_NE USA_R50_SE USA_R50_SW USA_R50_NW USA_R64_NE USA_R64_SE USA_R64_SW USA_R64_NW USA_POCI USA_ROCI USA_RMW USA_EYE TOKYO_LAT TOKYO_LON TOKYO_GRADE TOKYO_WIND TOKYO_PRES TOKYO_R50_DIR TOKYO_R50_LONG TOKYO_R50_SHORT TOKYO_R30_DIR TOKYO_R30_LONG TOKYO_R30_SHORT TOKYO_LAND CMA_LAT CMA_LON CMA_CAT CMA_WIND CMA_PRES HKO_LAT HKO_LON HKO_CAT HKO_WIND HKO_PRES NEWDELHI_LAT NEWDELHI_LON NEWDELHI_GRADE NEWDELHI_WIND NEWDELHI_PRES NEWDELHI_CI NEWDELHI_DP NEWDELHI_POCI REUNION_LAT REUNION_LON REUNION_TYPE REUNION_WIND REUNION_PRES REUNION_TNUM REUNION_CI REUNION_RMW REUNION_R34_NE REUNION_R34_SE REUNION_R34_SW REUNION_R34_NW REUNION_R50_NE REUNION_R50_SE REUNION_R50_SW REUNION_R50_NW REUNION_R64_NE REUNION_R64_SE REUNION_R64_SW REUNION_R64_NW BOM_LAT BOM_LON BOM_TYPE BOM_WIND BOM_PRES BOM_TNUM BOM_CI BOM_RMW BOM_R34_NE BOM_R34_SE BOM_R34_SW BOM_R34_NW BOM_R50_NE BOM_R50_SE BOM_R50_SW BOM_R50_NW BOM_R64_NE BOM_R64_SE BOM_R64_SW BOM_R64_NW BOM_ROCI BOM_POCI BOM_EYE BOM_POS_METHOD BOM_PRES_METHOD NADI_LAT NADI_LON NADI_CAT NADI_WIND NADI_PRES WELLINGTON_LAT WELLINGTON_LON WELLINGTON_WIND WELLINGTON_PRES DS824_LAT DS824_LON DS824_STAGE DS824_WIND DS824_PRES TD9636_LAT TD9636_LON TD9636_STAGE TD9636_WIND TD9636_PRES TD9635_LAT TD9635_LON TD9635_WIND TD9635_PRES TD9635_ROCI NEUMANN_LAT NEUMANN_LON NEUMANN_CLASS NEUMANN_WIND NEUMANN_PRES MLC_LAT MLC_LON MLC_CLASS MLC_WIND MLC_PRES USA_GUST BOM_GUST BOM_GUST_PER REUNION_GUST REUNION_GUST_PER USA_SEAHGT USA_SEARAD_NE USA_SEARAD_SE USA_SEARAD_SW USA_SEARAD_NW STORM_SPEED STORM_DIR
1988221N30270 1988 51 NA NA BERYL 1988-08-08 00:00:00 TS 30.4000 -90.3000 25 1010 hurdat_atl main 0 0 O_____________ hurdat_atl AL021988 30.4000 -90.3000 TD 25 1010 -1 10 146
1988221N30270 1988 51 NA NA BERYL 1988-08-08 03:00:00 TS 29.9727 -89.9715 main 0 0 P_____________ AL021988 29.9727 -89.9715 TD 27 1009 -1 9 143
1988221N30270 1988 51 NA NA BERYL 1988-08-08 06:00:00 TS 29.7000 -89.7000 30 1009 hurdat_atl main 0 0 O_____________ hurdat_atl AL021988 29.7000 -89.7000 TD 30 1009 -1 5 128
1988221N30270 1988 51 NA GM BERYL 1988-08-08 09:00:00 TS 29.6699 -89.5205 main 9 0 P_____________ AL021988 29.6699 -89.5205 TD 32 1008 -1 3 90
1988221N30270 1988 51 NA GM BERYL 1988-08-08 12:00:00 TS 29.7000 -89.4000 35 1007 hurdat_atl main 0 0 O_____________ hurdat_atl AL021988 29.7000 -89.4000 TS 35 1007 0 2 119
1988221N30270 1988 51 NA GM BERYL 1988-08-08 15:00:00 TS 29.5575 -89.2849 main 14 11 P_____________ AL021988 29.5575 -89.2849 TS 37 1006 0 3 150
1988221N30270 1988 51 NA GM BERYL 1988-08-08 18:00:00 TS 29.4000 -89.2000 40 1005 hurdat_atl main 11 0 O_____________ hurdat_atl AL021988 29.4000 -89.2000 TS 40 1005 0 3 148
1988221N30270 1988 51 NA GM BERYL 1988-08-08 21:00:00 TS 29.3050 -89.1051 main 9 9 P_____________ AL021988 29.3050 -89.1051 TS 42 1003 0 1 140
1988221N30270 1988 51 NA GM BERYL 1988-08-09 00:00:00 TS 29.3000 -89.1000 45 1002 hurdat_atl main 9 0 O_____________ hurdat_atl AL021988 29.3000 -89.1000 TS 45 1002 0 1 314
1988221N30270 1988 51 NA GM BERYL 1988-08-09 03:00:00 TS 29.4048 -89.2252 main 11 9 P_____________ AL021988 29.4048 -89.2252 TS 45 1001 0 5 311
1988221N30270 1988 51 NA GM BERYL 1988-08-09 06:00:00 TS 29.6000 -89.5000 45 1001 hurdat_atl main 9 0 O_____________ hurdat_atl AL021988 29.6000 -89.5000 TS 45 1001 0 8 307
1988221N30270 1988 51 NA NA BERYL 1988-08-09 09:00:00 TS 29.8729 -89.9417 main 0 0 P_____________ AL021988 29.8729 -89.9417 TS 45 1001 0 9 303
1988221N30270 1988 51 NA GM BERYL 1988-08-09 12:00:00 TS 30.1000 -90.4000 45 1002 hurdat_atl main 0 0 O_____________ hurdat_atl AL021988 30.1000 -90.4000 TS 45 1002 0 7 292
1988221N30270 1988 51 NA NA BERYL 1988-08-09 15:00:00 TS 30.1221 -90.6656 main 0 0 P_____________ AL021988 30.1221 -90.6656 TS 42 1003 0 4 270
1988221N30270 1988 51 NA NA BERYL 1988-08-09 18:00:00 TS 30.1000 -90.9000 40 1005 hurdat_atl main 0 0 O_____________ hurdat_atl AL021988 30.1000 -90.9000 TS 40 1005 0 5 275
1988221N30270 1988 51 NA NA BERYL 1988-08-09 21:00:00 TS 30.1701 -91.2425 main 0 0 P_____________ AL021988 30.1701 -91.2425 TS 35 1005 0 6 288
1988221N30270 1988 51 NA NA BERYL 1988-08-10 00:00:00 TS 30.3000 -91.6000 30 1006 hurdat_atl main 0 0 O_____________ hurdat_atl AL021988 30.3000 -91.6000 TD 30 1006 -1 7 298
1988221N30270 1988 51 NA NA BERYL 1988-08-10 03:00:00 TS 30.4775 -91.9225 main 0 0 P_____________ AL021988 30.4775 -91.9225 TD 30 1006 -1 7 308
1988221N30270 1988 51 NA NA BERYL 1988-08-10 06:00:00 TS 30.7000 -92.2000 30 1007 hurdat_atl main 0 0 O_____________ hurdat_atl AL021988 30.7000 -92.2000 TD 30 1007 -1 6 319
1988221N30270 1988 51 NA NA BERYL 1988-08-10 09:00:00 TS 30.9423 -92.4003 main 0 0 P_____________ AL021988 30.9423 -92.4003 TD 27 1007 -1 6 326
1988221N30270 1988 51 NA NA BERYL 1988-08-10 12:00:00 TS 31.2000 -92.6000 25 1008 hurdat_atl main 0 0 O_____________ hurdat_atl AL021988 31.2000 -92.6000 TD 25 1008 -1 7 322
1988221N30270 1988 51 NA NA BERYL 1988-08-10 15:00:00 TS 31.4528 -92.8745 main 0 0 P_____________ AL021988 31.4528 -92.8745 TD 22 1009 -1 7 314
1988221N30270 1988 51 NA NA BERYL 1988-08-10 18:00:00 TS 31.7000 -93.2000 20 1011 hurdat_atl main 0 O_____________ hurdat_atl AL021988 31.7000 -93.2000 TD 20 1011 -1 7 312

About IBTrACS Database

This database is a web-friendly format of International Best Track Archive for Climate Stewardship (IBTrACS), a global best track data archive curated by NOAA dating back to 1842.

Updated: 2021-12-03